createdAt,value
2022-10-23T00:01:23.086Z,6.51
2022-10-23T00:04:30.822Z,6.74
2022-10-23T00:07:37.143Z,6.32
2022-10-23T00:10:44.359Z,6.73
2022-10-23T00:13:51.417Z,6.45
2022-10-23T00:16:57.394Z,6.96
2022-10-23T00:20:07.358Z,7.16
2022-10-23T00:23:13.729Z,7.29
2022-10-23T00:26:19.977Z,7.01
2022-10-23T00:29:28.212Z,6.29
2022-10-23T00:32:34.470Z,6.11
2022-10-23T00:35:42.887Z,6.44
2022-10-23T00:38:50.296Z,6.90
2022-10-23T00:41:56.758Z,6.90
2022-10-23T00:45:22.690Z,7.12
2022-10-23T00:48:30.059Z,6.94
2022-10-23T00:51:42.027Z,6.80
2022-10-23T00:54:48.242Z,6.09
2022-10-23T00:57:54.919Z,6.73
2022-10-23T01:01:01.068Z,6.38
2022-10-23T01:04:09.399Z,6.08
2022-10-23T01:07:24.133Z,5.90
2022-10-23T01:10:38.082Z,6.34
2022-10-23T01:13:50.991Z,6.29
2022-10-23T01:17:06.762Z,6.27
2022-10-23T01:20:33.039Z,6.20
2022-10-23T01:24:09.105Z,6.70
2022-10-23T01:27:24.042Z,7.05
2022-10-23T01:30:31.997Z,6.83
2022-10-23T01:33:42.467Z,6.96
2022-10-23T01:36:50.695Z,6.76
2022-10-23T01:40:02.711Z,6.58
2022-10-23T01:43:18.147Z,6.13
2022-10-23T01:46:27.265Z,6.13
2022-10-23T01:49:34.978Z,6.47
2022-10-23T01:52:41.756Z,6.59
2022-10-23T01:55:50.675Z,6.75
2022-10-23T01:59:01.312Z,6.49
2022-10-23T02:02:08.754Z,6.32
2022-10-23T02:05:20.803Z,5.37
2022-10-23T02:08:27.303Z,5.39
2022-10-23T02:11:38.339Z,5.07
2022-10-23T02:14:53.458Z,5.87
2022-10-23T02:18:07.510Z,6.27
2022-10-23T02:21:17.983Z,6.48
2022-10-23T02:24:32.846Z,6.28
2022-10-23T02:27:44.093Z,5.89
2022-10-23T02:30:52.093Z,5.72
2022-10-23T02:33:58.424Z,6.06
2022-10-23T02:37:05.038Z,6.03
2022-10-23T02:40:13.190Z,5.95
2022-10-23T02:43:25.541Z,6.04
2022-10-23T02:46:45.878Z,6.32
2022-10-23T02:49:58.643Z,6.23
2022-10-23T02:53:12.313Z,5.83
2022-10-23T02:56:24.392Z,6.25
2022-10-23T02:59:38.495Z,6.46
2022-10-23T03:02:48.849Z,6.39
2022-10-23T03:05:54.817Z,6.09
2022-10-23T03:09:03.279Z,5.68
2022-10-23T03:12:09.200Z,5.73
2022-10-23T03:15:16.040Z,6.20
2022-10-23T03:18:23.489Z,6.22
2022-10-23T03:21:29.560Z,6.23
2022-10-23T03:24:35.442Z,6.23
2022-10-23T03:27:41.603Z,6.51
2022-10-23T03:30:47.935Z,6.08
2022-10-23T03:33:55.863Z,6.11
2022-10-23T03:37:02.215Z,6.26
2022-10-23T03:40:09.864Z,6.01
2022-10-23T03:43:16.511Z,6.23
2022-10-23T03:46:22.909Z,5.92
2022-10-23T03:49:30.782Z,6.14
2022-10-23T03:52:36.860Z,6.24
2022-10-23T03:55:44.930Z,6.36
2022-10-23T03:58:51.540Z,6.31
2022-10-23T04:01:58.031Z,5.77
2022-10-23T04:05:05.830Z,5.92
2022-10-23T04:08:14.169Z,5.77
2022-10-23T04:11:23.503Z,6.06
2022-10-23T04:14:30.099Z,6.04
2022-10-23T04:17:36.361Z,5.38
2022-10-23T04:20:44.098Z,5.35
2022-10-23T04:23:50.134Z,4.97
2022-10-23T04:26:56.418Z,4.98
2022-10-23T04:30:03.792Z,5.41
2022-10-23T04:33:10.273Z,5.62
2022-10-23T04:36:17.992Z,5.69
2022-10-23T04:39:24.136Z,5.99
2022-10-23T04:42:30.289Z,6.26
2022-10-23T04:45:36.533Z,5.56
2022-10-23T04:48:42.876Z,5.75
2022-10-23T04:51:50.621Z,6.08
2022-10-23T04:54:56.559Z,6.12
2022-10-23T04:58:02.652Z,5.97
2022-10-23T05:01:10.640Z,5.91
2022-10-23T05:04:16.859Z,6.14
2022-10-23T05:07:24.631Z,6.26
2022-10-23T05:10:31.528Z,6.70
2022-10-23T05:13:37.801Z,6.88
2022-10-23T05:16:49.535Z,7.10
2022-10-23T05:19:57.462Z,7.41
2022-10-23T05:23:10.029Z,7.40
2022-10-23T05:26:16.347Z,7.57
2022-10-23T05:29:22.807Z,7.73
2022-10-23T05:32:32.195Z,7.70
2022-10-23T05:35:39.415Z,8.12
2022-10-23T05:38:47.853Z,8.07
2022-10-23T05:41:55.137Z,8.66
2022-10-23T05:45:01.172Z,9.42
2022-10-23T05:48:17.020Z,9.50
2022-10-23T05:51:28.311Z,9.53
2022-10-23T05:54:35.796Z,9.45
2022-10-23T05:57:42.093Z,9.91
2022-10-23T06:00:48.387Z,10.82
2022-10-23T06:03:54.843Z,10.66
2022-10-23T06:07:01.219Z,11.64
2022-10-23T06:10:09.843Z,11.56
2022-10-23T06:13:16.455Z,10.57
2022-10-23T06:16:24.772Z,10.83
2022-10-23T06:19:31.411Z,11.18
2022-10-23T06:22:37.733Z,11.43
2022-10-23T06:25:53.616Z,11.89
2022-10-23T06:29:00.151Z,11.53
2022-10-23T06:32:06.330Z,12.23
2022-10-23T06:35:12.306Z,12.30
2022-10-23T06:38:18.700Z,12.68
2022-10-23T06:41:26.214Z,13.05
2022-10-23T06:44:32.171Z,13.17
2022-10-23T06:47:38.425Z,13.62
2022-10-23T06:50:44.938Z,13.95
2022-10-23T06:53:51.326Z,14.18
2022-10-23T06:56:59.000Z,14.14
2022-10-23T07:00:05.783Z,14.44
2022-10-23T07:03:11.988Z,14.92
2022-10-23T07:06:17.945Z,15.13
2022-10-23T07:09:24.432Z,17.70
2022-10-23T07:12:32.044Z,18.37
2022-10-23T07:15:38.537Z,18.48
2022-10-23T07:18:45.348Z,18.70
2022-10-23T07:21:52.510Z,18.99
2022-10-23T07:24:58.782Z,19.07
2022-10-23T07:28:06.872Z,18.98
2022-10-23T07:31:13.437Z,19.20
2022-10-23T07:34:19.377Z,19.48
2022-10-23T07:37:25.850Z,19.54
2022-10-23T07:40:32.503Z,19.39
2022-10-23T07:43:40.597Z,19.48
2022-10-23T07:46:47.031Z,19.64
2022-10-23T07:49:53.162Z,19.54
2022-10-23T07:53:00.335Z,19.65
2022-10-23T07:56:14.343Z,19.60
2022-10-23T07:59:22.057Z,19.82
2022-10-23T08:02:28.239Z,19.90
2022-10-23T08:05:34.302Z,19.89
2022-10-23T08:08:40.566Z,19.95
2022-10-23T08:11:46.651Z,20.01
2022-10-23T08:14:54.763Z,20.21
2022-10-23T08:18:01.196Z,20.00
2022-10-23T08:21:07.735Z,20.05
2022-10-23T08:24:14.390Z,20.23
2022-10-23T08:27:20.775Z,20.05
2022-10-23T08:30:28.656Z,20.27
2022-10-23T08:33:35.244Z,20.26
2022-10-23T08:36:42.251Z,20.17
2022-10-23T08:39:51.313Z,20.00
2022-10-23T08:43:06.771Z,20.18
2022-10-23T08:46:19.086Z,20.55
2022-10-23T08:49:36.015Z,20.36
2022-10-23T08:52:49.056Z,20.30
2022-10-23T08:56:01.958Z,20.66
2022-10-23T08:59:20.378Z,20.67
2022-10-23T09:02:31.454Z,20.73
2022-10-23T09:05:47.837Z,20.49
2022-10-23T09:09:00.657Z,20.84
2022-10-23T09:12:12.755Z,20.89
2022-10-23T09:15:29.382Z,20.67
2022-10-23T09:18:36.746Z,20.50
2022-10-23T09:21:43.518Z,20.79
2022-10-23T09:24:53.726Z,20.92
2022-10-23T09:28:05.222Z,20.78
2022-10-23T09:31:13.779Z,20.73
2022-10-23T09:34:23.566Z,20.88
2022-10-23T09:37:32.431Z,21.20
2022-10-23T09:40:42.139Z,21.18
2022-10-23T09:43:48.499Z,21.22
2022-10-23T09:46:56.398Z,21.50
2022-10-23T09:50:03.767Z,21.60
2022-10-23T09:53:18.493Z,21.79
2022-10-23T09:56:30.857Z,21.73
2022-10-23T09:59:37.154Z,21.96
2022-10-23T10:02:45.179Z,22.29
2022-10-23T10:05:58.986Z,22.15
2022-10-23T10:09:09.809Z,22.00
2022-10-23T10:12:30.220Z,22.24
2022-10-23T10:15:44.642Z,22.28
2022-10-23T10:18:57.569Z,22.84
2022-10-23T10:22:15.109Z,22.39
2022-10-23T10:25:24.859Z,22.57
2022-10-23T10:28:51.189Z,22.27
2022-10-23T10:32:07.004Z,22.17
2022-10-23T10:35:38.474Z,22.23
2022-10-23T10:38:50.419Z,22.19
2022-10-23T10:42:23.758Z,22.27
2022-10-23T10:45:34.896Z,22.43
2022-10-23T10:48:50.819Z,22.44
2022-10-23T10:52:04.318Z,22.23
2022-10-23T10:55:20.179Z,22.16
2022-10-23T10:58:43.352Z,22.42
2022-10-23T11:01:58.128Z,22.40
2022-10-23T11:05:20.482Z,22.25
2022-10-23T11:08:44.389Z,22.10
2022-10-23T11:12:01.175Z,22.25
2022-10-23T11:15:14.433Z,22.45
2022-10-23T11:18:27.026Z,22.23
2022-10-23T11:21:39.689Z,22.79
2022-10-23T11:25:24.178Z,22.27
2022-10-23T11:28:46.792Z,22.43
2022-10-23T11:32:07.775Z,22.59
2022-10-23T11:35:49.307Z,22.43
2022-10-23T11:38:59.245Z,22.72
2022-10-23T11:42:15.812Z,22.39
2022-10-23T11:45:44.741Z,22.08
2022-10-23T11:48:51.770Z,22.32
2022-10-23T11:52:03.078Z,22.25
2022-10-23T11:55:20.395Z,22.16
2022-10-23T11:58:32.217Z,22.33
2022-10-23T12:01:45.594Z,22.09
2022-10-23T12:04:54.183Z,22.23
2022-10-23T12:08:03.105Z,22.54
2022-10-23T12:11:27.894Z,22.24
2022-10-23T12:14:39.056Z,22.49
2022-10-23T12:17:47.911Z,22.78
2022-10-23T12:20:57.514Z,22.25
2022-10-23T12:24:16.003Z,22.34
2022-10-23T12:27:34.212Z,22.31
2022-10-23T12:30:45.789Z,22.19
2022-10-23T12:34:03.320Z,22.32
2022-10-23T12:37:29.759Z,21.99
2022-10-23T12:40:35.746Z,22.13
2022-10-23T12:43:44.011Z,22.18
2022-10-23T12:46:53.351Z,22.47
2022-10-23T12:50:01.050Z,22.34
2022-10-23T12:53:08.894Z,22.30
2022-10-23T12:56:16.935Z,22.39
2022-10-23T12:59:27.297Z,22.71
2022-10-23T13:02:33.863Z,22.46
2022-10-23T13:05:41.582Z,22.33
2022-10-23T13:08:49.190Z,22.13
2022-10-23T13:11:57.290Z,22.84
2022-10-23T13:15:15.045Z,22.55
2022-10-23T13:18:21.146Z,22.75
2022-10-23T13:21:30.236Z,22.94
2022-10-23T13:24:36.183Z,22.97
2022-10-23T13:27:43.075Z,22.62
2022-10-23T13:31:07.660Z,22.84
2022-10-23T13:34:22.595Z,23.11
2022-10-23T13:37:31.647Z,22.76
2022-10-23T13:40:37.772Z,22.23
2022-10-23T13:43:45.173Z,22.09
2022-10-23T13:46:53.220Z,22.15
2022-10-23T13:49:59.649Z,22.08
2022-10-23T13:53:09.691Z,21.55
2022-10-23T13:56:18.720Z,21.44
2022-10-23T13:59:25.263Z,21.07
2022-10-23T14:02:31.668Z,20.92
2022-10-23T14:05:37.837Z,20.94
2022-10-23T14:08:45.829Z,20.78
2022-10-23T14:11:52.210Z,20.68
2022-10-23T14:14:58.691Z,20.58
2022-10-23T14:18:08.243Z,20.62
2022-10-23T14:21:17.425Z,20.41
2022-10-23T14:24:25.258Z,20.50
2022-10-23T14:27:31.555Z,20.14
2022-10-23T14:30:37.959Z,20.07
2022-10-23T14:33:45.617Z,20.11
2022-10-23T14:37:07.279Z,19.73
2022-10-23T14:40:15.805Z,19.88
2022-10-23T14:43:22.933Z,19.81
2022-10-23T14:46:29.638Z,19.69
2022-10-23T14:49:35.970Z,19.55
2022-10-23T14:52:42.379Z,19.54
2022-10-23T14:55:50.167Z,19.44
2022-10-23T14:59:02.631Z,19.59
2022-10-23T15:02:11.535Z,19.49
2022-10-23T15:05:18.699Z,19.48
2022-10-23T15:08:25.199Z,19.26
2022-10-23T15:11:33.015Z,19.19
2022-10-23T15:14:39.380Z,19.24
2022-10-23T15:17:45.855Z,18.99
2022-10-23T15:20:54.016Z,19.09
2022-10-23T15:24:01.863Z,18.97
2022-10-23T15:30:20.504Z,18.92
2022-10-23T15:33:27.427Z,18.88
2022-10-23T15:36:33.923Z,18.80
2022-10-23T15:39:40.166Z,18.75
2022-10-23T15:42:51.739Z,18.60
2022-10-23T15:45:57.614Z,18.64
2022-10-23T15:49:04.847Z,18.58
2022-10-23T15:52:11.871Z,18.48
2022-10-23T15:55:18.518Z,18.36
2022-10-23T15:58:26.186Z,18.24
2022-10-23T16:01:32.677Z,18.21
2022-10-23T16:04:39.195Z,18.15
2022-10-23T16:07:45.411Z,18.13
2022-10-23T16:10:51.962Z,18.05
2022-10-23T16:14:01.711Z,17.95
2022-10-23T16:17:08.773Z,18.12
2022-10-23T16:20:15.165Z,18.13
2022-10-23T16:23:21.709Z,17.99
2022-10-23T16:26:29.268Z,17.91
2022-10-23T16:29:37.273Z,17.63
2022-10-23T16:32:43.639Z,17.96
2022-10-23T16:35:50.030Z,18.15
2022-10-23T16:38:57.014Z,18.06
2022-10-23T16:42:03.409Z,18.04
2022-10-23T16:45:12.043Z,17.67
2022-10-23T16:48:18.692Z,17.26
2022-10-23T16:51:27.424Z,17.06
2022-10-23T16:54:33.924Z,16.75
2022-10-23T16:57:40.431Z,16.71
2022-10-23T17:00:57.460Z,16.77
2022-10-23T17:04:03.864Z,16.84
2022-10-23T17:07:10.223Z,16.47
2022-10-23T17:10:16.732Z,15.98
2022-10-23T17:13:23.087Z,15.98
2022-10-23T17:16:34.528Z,15.69
2022-10-23T17:19:46.056Z,15.70
2022-10-23T17:22:52.599Z,15.81
2022-10-23T17:25:59.562Z,15.22
2022-10-23T17:29:09.130Z,15.13
2022-10-23T17:32:16.828Z,15.44
2022-10-23T17:35:23.003Z,15.06
2022-10-23T17:38:29.243Z,14.87
2022-10-23T17:41:35.915Z,14.86
2022-10-23T17:44:41.998Z,14.72
2022-10-23T17:47:49.731Z,14.25
2022-10-23T17:51:04.435Z,14.36
2022-10-23T17:54:14.694Z,14.43
2022-10-23T18:00:32.111Z,13.82
2022-10-23T18:03:41.135Z,13.78
2022-10-23T18:06:50.198Z,13.77
2022-10-23T18:09:56.261Z,13.54
2022-10-23T18:13:02.724Z,13.59
2022-10-23T18:16:11.440Z,13.56
2022-10-23T18:19:20.258Z,13.27
2022-10-23T18:22:26.144Z,13.27
2022-10-23T18:25:32.532Z,13.17
2022-10-23T18:28:39.069Z,12.88
2022-10-23T18:31:48.337Z,12.81
2022-10-23T18:34:55.880Z,12.96
2022-10-23T18:38:03.423Z,12.60
2022-10-23T18:41:13.483Z,12.69
2022-10-23T18:44:21.799Z,12.46
2022-10-23T18:47:28.029Z,12.00
2022-10-23T18:50:38.624Z,12.14
2022-10-23T18:53:47.005Z,12.22
2022-10-23T18:56:53.196Z,12.09
2022-10-23T18:59:59.641Z,11.82
2022-10-23T19:03:06.503Z,12.18
2022-10-23T19:06:14.043Z,12.08
2022-10-23T19:09:20.713Z,11.75
2022-10-23T19:12:27.032Z,11.35
2022-10-23T19:15:34.900Z,11.73
2022-10-23T19:18:44.092Z,11.61
2022-10-23T19:21:52.510Z,11.55
2022-10-23T19:25:01.102Z,11.56
2022-10-23T19:28:07.304Z,11.43
2022-10-23T19:31:14.285Z,11.27
2022-10-23T19:34:22.923Z,11.36
2022-10-23T19:37:30.401Z,11.33
2022-10-23T19:40:36.464Z,11.33
2022-10-23T19:43:43.136Z,11.35
2022-10-23T19:46:49.598Z,11.12
2022-10-23T19:49:55.716Z,11.37
2022-10-23T19:53:03.678Z,11.01
2022-10-23T19:56:12.214Z,10.65
2022-10-23T19:59:19.129Z,10.78
2022-10-23T20:02:25.253Z,10.03
2022-10-23T20:05:32.262Z,10.28
2022-10-23T20:08:40.339Z,9.90
2022-10-23T20:11:46.658Z,10.05
2022-10-23T20:14:54.975Z,9.67
2022-10-23T20:18:01.158Z,10.08
2022-10-23T20:21:07.791Z,9.82
2022-10-23T20:24:17.352Z,9.76
2022-10-23T20:27:23.726Z,9.93
2022-10-23T20:30:30.145Z,10.15
2022-10-23T20:33:37.160Z,9.75
2022-10-23T20:36:46.771Z,9.46
2022-10-23T20:39:55.966Z,9.79
2022-10-23T20:43:01.938Z,9.41
2022-10-23T20:46:10.492Z,9.40
2022-10-23T20:49:17.131Z,9.05
2022-10-23T20:52:23.574Z,9.57
2022-10-23T20:55:31.274Z,9.63
2022-10-23T20:58:37.410Z,10.12
2022-10-23T21:01:46.257Z,10.01
2022-10-23T21:04:52.430Z,9.48
2022-10-23T21:07:58.648Z,9.59
2022-10-23T21:11:08.106Z,9.94
2022-10-23T21:14:14.634Z,9.69
2022-10-23T21:17:20.910Z,9.76
2022-10-23T21:20:27.311Z,9.79
2022-10-23T21:23:33.800Z,9.81
2022-10-23T21:26:41.723Z,9.54
2022-10-23T21:29:48.028Z,8.76
2022-10-23T21:32:54.401Z,8.66
2022-10-23T21:36:12.837Z,8.81
2022-10-23T21:39:19.534Z,8.86
2022-10-23T21:42:26.987Z,8.57
2022-10-23T21:45:33.115Z,8.49
2022-10-23T21:48:40.317Z,8.88
2022-10-23T21:51:47.401Z,8.72
2022-10-23T21:54:53.564Z,9.05
2022-10-23T21:58:01.355Z,8.32
2022-10-23T22:01:07.862Z,8.20
2022-10-23T22:04:17.269Z,8.30
2022-10-23T22:07:23.657Z,8.56
2022-10-23T22:10:29.788Z,9.01
2022-10-23T22:13:37.595Z,8.74
2022-10-23T22:16:43.760Z,8.93
2022-10-23T22:19:50.183Z,8.90
2022-10-23T22:22:56.536Z,8.62
2022-10-23T22:26:07.145Z,8.71
2022-10-23T22:29:16.765Z,7.65
2022-10-23T22:32:23.092Z,7.94
2022-10-23T22:35:30.874Z,7.45
2022-10-23T22:38:37.270Z,7.45
2022-10-23T22:41:44.098Z,7.26
2022-10-23T22:44:51.401Z,7.69
2022-10-23T22:47:58.017Z,7.79
2022-10-23T22:51:08.331Z,8.16
2022-10-23T22:54:15.387Z,8.51
2022-10-23T22:57:21.752Z,7.86
2022-10-23T23:00:29.301Z,7.46
2022-10-23T23:03:36.700Z,7.49
2022-10-23T23:06:43.044Z,7.90
2022-10-23T23:09:49.453Z,7.67
2022-10-23T23:12:55.550Z,7.63
2022-10-23T23:16:04.170Z,7.06
2022-10-23T23:19:12.601Z,7.29
2022-10-23T23:22:18.797Z,7.71
2022-10-23T23:25:25.007Z,7.49
2022-10-23T23:28:31.375Z,7.36
2022-10-23T23:31:39.293Z,6.76
2022-10-23T23:34:45.291Z,7.14
2022-10-23T23:37:51.443Z,7.95
2022-10-23T23:40:57.767Z,7.80
2022-10-23T23:44:03.772Z,7.87
2022-10-23T23:47:11.342Z,7.76
2022-10-23T23:50:18.157Z,7.35
2022-10-23T23:53:24.320Z,7.76
2022-10-23T23:56:32.042Z,7.39
2022-10-23T23:59:38.716Z,8.21
